Time;durP1;ratioP1;P1;durP2;ratioP2;P2;SDS_P1;SDS_P2;PMS_P1;PMS_P2;Temp;Humidity;BMP_temperature;BMP_pressure;BME280_temperature;BME280_humidity;BME280_pressure;Samples;Min_cycle;Max_cycle;Signal;HPM_P1;HPM_P2
2022/09/21 09:54:13;;;;;;;3.72;3.25;;;;;;;10.72;100.00;99380.48;1788875;78;28192;-78
2022/09/21 09:56:41;;;;;;;;;;;;;;;10.87;100.00;99384.01;1762669;79;21141;-78
2022/09/21 09:59:22;;;;;;;2.37;2.12;;;;;;;11.21;100.00;99385.39;1758231;80;21038;-80
2022/09/21 10:02:05;;;;;;;2.15;1.90;;;;;;;11.44;100.00;99388.50;1785721;80;21037;-80
2022/09/21 10:04:33;;;;;;;2.95;1.50;;;;;;;11.65;100.00;99385.09;1750562;80;21006;-80
2022/09/21 10:07:00;;;;;;;4.05;2.12;;;;;;;11.78;100.00;99382.61;1781805;79;21437;-81
2022/09/21 10:09:32;;;;;;;2.20;2.00;;;;;;;11.86;99.68;99391.00;1771009;79;21082;-78
2022/09/21 10:12:24;;;;;;;2.52;1.75;;;;;;;11.92;99.56;99391.64;1767638;79;21318;-78
2022/09/21 10:14:52;;;;;;;1.98;1.67;;;;;;;12.05;98.82;99392.30;1764354;79;21064;-78
2022/09/21 10:17:18;;;;;;;2.10;1.90;;;;;;;12.16;96.91;99387.83;1764352;80;21104;-78
2022/09/21 10:19:46;;;;;;;2.10;1.65;;;;;;;12.17;96.99;99381.50;1726665;81;21131;-78
2022/09/21 10:22:18;;;;;;;3.05;2.00;;;;;;;12.28;96.65;99388.16;1727997;81;21101;-78
2022/09/21 10:24:51;;;;;;;2.83;2.30;;;;;;;12.44;96.44;99383.95;1739199;81;21255;-79
2022/09/21 10:27:28;;;;;;;3.45;1.72;;;;;;;12.51;95.86;99378.16;1734656;81;21117;-79
2022/09/21 10:29:55;;;;;;;4.17;2.17;;;;;;;12.65;94.41;99386.29;1697643;83;21073;-80
2022/09/21 10:32:26;;;;;;;2.42;2.10;;;;;;;12.76;94.62;99378.61;1699367;82;21088;-79
2022/09/21 10:35:11;;;;;;;2.30;2.10;;;;;;;12.81;93.12;99381.23;1687180;82;21060;-79
2022/09/21 10:37:45;;;;;;;2.17;1.95;;;;;;;12.79;92.55;99381.42;1729766;81;21525;-79
2022/09/21 10:40:20;;;;;;;3.05;2.50;;;;;;;12.84;92.05;99384.31;1744522;81;21164;-79
2022/09/21 10:42:54;;;;;;;6.62;3.40;;;;;;;12.76;92.30;99392.45;1735843;81;21037;-80
2022/09/21 10:45:35;;;;;;;3.15;2.30;;;;;;;12.69;91.70;99394.22;1742765;81;21061;-76
2022/09/21 10:48:15;;;;;;;6.17;2.40;;;;;;;12.68;91.23;99397.92;1747907;81;21019;-78
2022/09/21 10:50:44;;;;;;;3.08;2.47;;;;;;;12.64;90.68;99401.47;1743002;80;21283;-76
2022/09/21 10:53:24;;;;;;;4.65;2.50;;;;;;;12.51;90.68;99407.98;1726906;81;20995;-79
2022/09/21 10:56:02;;;;;;;3.35;2.20;;;;;;;12.42;90.90;99407.78;1744977;81;21077;-79
2022/09/21 10:58:29;;;;;;;4.25;2.60;;;;;;;12.45;91.12;99410.08;1732392;81;21108;-77
2022/09/21 11:00:58;;;;;;;2.90;2.47;;;;;;;12.50;91.44;99410.34;1715483;80;21065;-78
2022/09/21 11:03:59;;;;;;;3.45;2.50;;;;;;;12.45;92.12;99406.08;1704496;82;21640;-79
2022/09/21 11:06:34;;;;;;;3.30;2.15;;;;;;;12.42;92.39;99405.11;1703497;83;21125;-77
2022/09/21 11:09:05;;;;;;;4.37;2.70;;;;;;;12.46;91.97;99408.56;1709870;82;21074;-78
2022/09/21 11:11:43;;;;;;;3.50;2.60;;;;;;;12.51;92.28;99408.80;1697866;83;21112;-77
2022/09/21 11:14:21;;;;;;;4.20;2.87;;;;;;;12.49;92.10;99400.17;1719057;82;21730;-77
2022/09/21 11:16:58;;;;;;;5.12;2.25;;;;;;;12.46;92.25;99409.05;1741328;81;21136;-78
2022/09/21 11:19:50;;;;;;;5.90;2.47;;;;;;;12.48;92.22;99403.05;1734343;81;21057;-78
2022/09/21 11:22:44;;;;;;;3.35;2.80;;;;;;;12.55;91.88;99396.75;1730206;81;21565;-79
2022/09/21 11:25:56;;;;;;;3.12;2.83;;;;;;;12.57;91.98;99400.08;1737151;81;21625;-81
2022/09/21 11:28:45;;;;;;;4.83;2.90;;;;;;;12.83;93.04;99390.68;1738490;81;21552;-80
2022/09/21 11:31:37;;;;;;;3.22;2.55;;;;;;;13.31;92.47;99390.08;1708970;81;22348;-80
2022/09/21 11:34:24;;;;;;;2.77;2.35;;;;;;;13.55;91.49;99390.94;1738714;81;20990;-81
2022/09/21 11:37:13;;;;;;;2.95;2.50;;;;;;;13.66;91.13;99393.58;1709792;82;21636;-80
2022/09/21 11:40:36;;;;;;;2.30;2.10;;;;;;;13.74;89.52;99393.94;1708736;82;21172;-79
2022/09/21 11:43:36;;;;;;;3.58;2.60;;;;;;;13.78;88.74;99396.52;1714464;81;21589;-79
2022/09/21 11:46:40;;;;;;;2.75;2.55;;;;;;;13.65;88.06;99397.26;1696508;82;21793;-77
2022/09/21 11:49:48;;;;;;;3.33;2.72;;;;;;;13.64;88.24;99393.48;1699561;82;21137;-78
2022/09/21 11:53:01;;;;;;;2.85;2.50;;;;;;;13.68;88.51;99396.06;1697002;83;21040;-80
2022/09/21 11:56:06;;;;;;;3.52;2.70;;;;;;;13.68;87.93;99390.72;1730725;81;21112;-82
2022/09/21 11:58:45;;;;;;;;;;;;;;;14.27;90.92;99392.81;1756680;81;21019;-81
2022/09/21 12:01:30;;;;;;;2.20;2.00;;;;;;;15.03;88.29;99387.75;1730513;80;21191;-82
2022/09/21 12:04:29;;;;;;;1.82;1.72;;;;;;;15.46;85.07;99389.97;1750100;81;21067;-80
2022/09/21 12:07:04;;;;;;;2.98;1.70;;;;;;;15.69;84.00;99389.51;1728076;81;21112;-78
2022/09/21 12:10:07;;;;;;;2.87;1.90;;;;;;;15.79;81.78;99390.44;1742137;81;21478;-79
2022/09/21 12:12:45;;;;;;;2.00;1.77;;;;;;;15.67;80.13;99388.09;1703237;82;21541;-79
2022/09/21 12:15:56;;;;;;;2.50;2.30;;;;;;;15.57;79.96;99389.02;1698701;82;21259;-78
2022/09/21 12:18:48;;;;;;;2.42;2.22;;;;;;;15.47;79.60;99390.29;1718779;82;21065;-80
2022/09/21 12:21:30;;;;;;;1.62;1.52;;;;;;;15.53;78.97;99382.75;1699020;83;21011;-83
2022/09/21 12:24:04;;;;;;;2.47;1.92;;;;;;;15.80;79.02;99386.74;1708531;81;21124;-81
2022/09/21 12:26:38;;;;;;;1.90;1.70;;;;;;;16.18;79.19;99384.62;1732158;81;21000;-80
2022/09/21 12:29:13;;;;;;;1.30;1.20;;;;;;;16.42;78.97;99384.94;1740096;81;21199;-82
2022/09/21 12:32:04;;;;;;;1.67;1.57;;;;;;;16.38;75.98;99395.76;1741646;80;21026;-78
2022/09/21 12:34:40;;;;;;;2.22;1.72;;;;;;;16.05;75.65;99404.77;1743973;81;21046;-79
2022/09/21 12:37:13;;;;;;;1.90;1.60;;;;;;;15.62;76.43;99403.42;1699036;81;21126;-80
2022/09/21 12:40:06;;;;;;;2.02;1.50;;;;;;;15.29;77.98;99403.47;1738365;80;21020;-79
2022/09/21 12:42:50;;;;;;;2.00;1.75;;;;;;;14.98;79.12;99410.78;1696699;82;21263;-80
2022/09/21 12:45:25;;;;;;;5.53;5.03;;;;;;;14.48;80.42;99409.73;1694251;83;21522;-85
2022/09/21 12:48:07;;;;;;;2.42;2.00;;;;;;;14.13;81.74;99413.84;1721179;81;21061;-84
2022/09/21 12:50:56;;;;;;;2.10;1.80;;;;;;;13.95;82.29;99411.70;1718246;79;20960;-87
2022/09/21 12:53:33;;;;;;;2.15;1.98;;;;;;;13.78;82.66;99415.20;1707701;82;21056;-84
2022/09/21 12:56:32;;;;;;;2.37;2.17;;;;;;;13.50;83.86;99408.55;1716643;82;21233;-85
2022/09/21 12:59:12;;;;;;;2.25;2.05;;;;;;;13.36;84.87;99416.98;1706182;81;21025;-86
2022/09/21 13:02:00;;;;;;;2.33;2.12;;;;;;;13.32;85.32;99409.05;1705420;82;21058;-83
2022/09/21 13:04:42;;;;;;;3.00;2.70;;;;;;;13.32;85.56;99406.39;1701659;82;22129;-82
2022/09/21 13:07:44;;;;;;;2.70;2.50;;;;;;;13.25;86.78;99403.66;1722922;82;21068;-87
2022/09/21 13:10:24;;;;;;;2.80;2.60;;;;;;;13.17;87.12;99401.10;1684068;82;21306;-83
2022/09/21 13:12:58;;;;;;;4.40;3.83;;;;;;;13.25;87.56;99399.66;1723238;82;21018;-84
2022/09/21 13:15:32;;;;;;;4.47;3.05;;;;;;;13.30;88.04;99400.42;1708493;82;21078;-82
2022/09/21 13:18:17;;;;;;;3.55;3.25;;;;;;;13.24;87.54;99405.17;1706468;82;21529;-85
2022/09/21 13:20:46;;;;;;;2.65;2.37;;;;;;;13.18;88.03;99404.10;1701150;82;21087;-85
2022/09/21 13:23:16;;;;;;;3.65;2.77;;;;;;;13.21;87.77;99406.87;1725818;81;21155;-86
2022/09/21 13:25:58;;;;;;;3.17;2.87;;;;;;;13.25;87.83;99405.47;1692761;82;21074;-85
2022/09/21 13:28:55;;;;;;;3.20;2.83;;;;;;;13.20;87.77;99401.25;1711259;82;21384;-84
2022/09/21 13:31:40;;;;;;;2.80;2.50;;;;;;;13.14;87.97;99405.51;1705491;82;21073;-86
2022/09/21 13:34:27;;;;;;;3.02;2.72;;;;;;;13.19;88.22;99405.73;1715628;82;21100;-84
2022/09/21 13:37:21;;;;;;;3.12;2.83;;;;;;;13.28;87.40;99407.77;1721000;81;21228;-83
2022/09/21 13:39:56;;;;;;;3.42;2.30;;;;;;;13.21;87.07;99405.55;1686120;83;21073;-84
2022/09/21 13:42:37;;;;;;;2.10;1.90;;;;;;;13.10;86.95;99403.73;1714116;82;21001;-82
2022/09/21 13:45:22;;;;;;;2.92;2.60;;;;;;;13.08;86.64;99408.95;1703382;82;21033;-83
2022/09/21 13:47:51;;;;;;;2.47;2.27;;;;;;;13.08;86.69;99404.44;1723800;82;21073;-83
2022/09/21 13:50:37;;;;;;;2.90;2.35;;;;;;;13.00;86.75;99408.58;1720957;82;21219;-84
2022/09/21 13:53:11;;;;;;;2.72;2.02;;;;;;;12.93;87.30;99407.69;1702324;82;21037;-80
2022/09/21 13:55:41;;;;;;;2.10;2.00;;;;;;;12.97;87.39;99408.95;1717525;82;20978;-81
2022/09/21 13:58:27;;;;;;;3.12;2.47;;;;;;;13.09;87.59;99411.92;1710730;82;21042;-82
2022/09/21 14:01:00;;;;;;;2.85;2.33;;;;;;;13.10;87.57;99410.40;1715716;82;21186;-82
2022/09/21 14:03:42;;;;;;;2.77;2.00;;;;;;;13.11;87.82;99410.70;1722029;82;21113;-82
2022/09/21 14:06:18;;;;;;;3.83;2.33;;;;;;;13.25;88.08;99412.98;1710669;81;21565;-85
2022/09/21 14:09:05;;;;;;;2.70;1.90;;;;;;;13.42;86.56;99413.53;1709580;82;21020;-84
2022/09/21 14:11:36;;;;;;;3.58;2.75;;;;;;;13.42;85.93;99413.53;1715712;82;21120;-85
2022/09/21 14:14:31;;;;;;;4.20;2.80;;;;;;;13.40;86.25;99419.57;1712899;81;21133;-84
2022/09/21 14:17:00;;;;;;;4.05;3.35;;;;;;;13.43;85.13;99420.53;1723542;81;21262;-83
2022/09/21 14:19:32;;;;;;;4.25;3.52;;;;;;;13.48;84.76;99414.11;1718020;81;21060;-83
2022/09/21 14:22:09;;;;;;;5.03;4.45;;;;;;;13.41;84.77;99418.56;1740724;81;21184;-81
2022/09/21 14:24:50;;;;;;;3.92;2.98;;;;;;;13.35;85.07;99420.69;1712701;81;21039;-84
2022/09/21 14:27:42;;;;;;;2.62;2.08;;;;;;;13.36;85.14;99421.80;1716479;82;21131;-81
2022/09/21 14:30:26;;;;;;;2.55;2.35;;;;;;;13.42;84.97;99413.53;1743373;81;21279;-80
2022/09/21 14:33:07;;;;;;;2.92;2.10;;;;;;;13.38;84.51;99412.27;1704456;81;21151;-81
2022/09/21 14:35:42;;;;;;;2.27;2.08;;;;;;;13.34;85.12;99413.69;1702862;81;21065;-83
2022/09/21 14:38:28;;;;;;;2.95;2.02;;;;;;;13.32;85.06;99417.05;1707076;82;21140;-81
2022/09/21 14:43:54;;;;;;;2.17;1.92;;;;;;;13.45;84.02;99420.34;1629903;86;21221;-81
2022/09/21 14:46:44;;;;;;;3.62;1.92;;;;;;;13.32;83.70;99425.06;1618797;85;21030;-79
2022/09/21 14:49:57;;;;;;;2.15;1.92;;;;;;;13.18;83.24;99430.25;1636352;85;21064;-79
2022/09/21 14:52:57;;;;;;;2.20;2.00;;;;;;;13.08;83.78;99432.95;1639327;86;21087;-80
2022/09/21 14:56:10;;;;;;;2.47;2.00;;;;;;;13.12;84.00;99431.55;1616309;86;21593;-80
2022/09/21 14:59:06;;;;;;;2.30;2.10;;;;;;;13.15;83.93;99435.99;1636405;83;21243;-79
2022/09/21 15:01:36;;;;;;;3.90;2.52;;;;;;;13.08;84.55;99441.77;1637109;85;21100;-80
2022/09/21 15:04:33;;;;;;;3.17;2.37;;;;;;;13.00;84.24;99439.24;1631928;85;21107;-80
2022/09/21 15:13:57;;;;;;;2.87;2.58;;;;;;;12.97;84.63;99449.76;1551701;90;21530;-79
2022/09/21 15:16:40;;;;;;;3.30;1.82;;;;;;;12.87;84.85;99456.45;1551271;91;21097;-80
2022/09/21 15:19:37;;;;;;;2.70;2.15;;;;;;;12.84;84.58;99454.14;1626771;84;21058;-80
2022/09/21 15:22:20;;;;;;;2.55;2.22;;;;;;;12.79;84.21;99462.72;1603120;87;21619;-79
2022/09/21 15:24:54;;;;;;;2.87;2.40;;;;;;;12.58;84.84;99463.52;1627330;85;21611;-79
2022/09/21 15:27:28;;;;;;;4.83;2.65;;;;;;;12.35;85.73;99464.47;1651310;84;21320;-79
2022/09/21 15:29:55;;;;;;;4.20;2.52;;;;;;;12.29;86.30;99468.41;1658364;84;21108;-79
2022/09/21 15:32:40;;;;;;;3.65;2.77;;;;;;;12.26;86.79;99469.58;1667787;84;21687;-79
2022/09/21 15:35:21;;;;;;;3.87;2.83;;;;;;;12.16;87.45;99475.70;1653910;84;21695;-80
2022/09/21 15:37:50;;;;;;;3.17;2.60;;;;;;;12.05;87.88;99471.66;1659124;84;21041;-79
2022/09/21 15:40:21;;;;;;;4.03;2.80;;;;;;;12.01;88.21;99477.03;1668678;84;22192;-79
2022/09/21 15:43:17;;;;;;;2.90;2.60;;;;;;;12.04;88.39;99479.85;1645716;84;21130;-76
2022/09/21 15:46:01;;;;;;;4.55;2.95;;;;;;;11.97;88.55;99482.41;1639718;84;21064;-85
2022/09/21 15:48:41;;;;;;;3.40;2.50;;;;;;;11.85;88.78;99483.84;1629701;84;21190;-81
2022/09/21 15:51:22;;;;;;;3.33;2.95;;;;;;;11.83;89.00;99488.02;1656930;84;21092;-83
2022/09/21 15:53:52;;;;;;;3.30;3.00;;;;;;;11.79;89.11;99492.05;1655293;84;21494;-83
2022/09/21 15:56:22;;;;;;;3.50;3.20;;;;;;;11.67;89.75;99489.53;1641298;84;21042;-81
2022/09/21 15:58:49;;;;;;;3.95;2.90;;;;;;;11.55;90.31;99489.96;1629715;85;21115;-83
2022/09/21 16:01:20;;;;;;;3.42;2.70;;;;;;;11.53;90.62;99495.12;1611266;86;21105;-80
2022/09/21 16:03:47;;;;;;;4.05;2.95;;;;;;;11.56;90.87;99495.59;1650629;84;21758;-82
2022/09/21 16:06:22;;;;;;;3.55;3.00;;;;;;;11.48;91.19;99504.98;1627098;85;21138;-82
2022/09/21 16:08:49;;;;;;;5.22;3.58;;;;;;;11.40;91.58;99501.07;1639613;86;21069;-83
2022/09/21 16:11:28;;;;;;;4.45;3.10;;;;;;;11.39;91.94;99503.39;1619735;86;21850;-82
2022/09/21 16:17:16;;;;;;;3.70;3.40;;;;;;;11.40;92.49;99506.39;1629523;87;21408;-82
2022/09/21 16:19:54;;;;;;;3.42;3.12;;;;;;;11.35;92.92;99504.25;1628690;86;21258;-83
2022/09/21 16:22:30;;;;;;;4.15;3.12;;;;;;;11.39;93.05;99504.72;1639541;86;21127;-81
2022/09/21 16:24:59;;;;;;;3.15;2.85;;;;;;;11.47;93.16;99505.16;1600207;87;21066;-87
2022/09/21 16:27:31;;;;;;;3.25;3.00;;;;;;;11.48;93.51;99509.48;1631056;86;21028;-84
2022/09/21 16:29:59;;;;;;;6.55;3.00;;;;;;;11.48;93.55;99507.64;1625988;87;21157;-83
2022/09/21 16:32:30;;;;;;;3.60;3.30;;;;;;;11.58;93.35;99508.20;1624751;86;21875;-82
2022/09/21 16:35:27;;;;;;;3.62;2.80;;;;;;;11.71;93.05;99511.59;1659244;84;21237;-83
2022/09/21 16:37:56;;;;;;;3.40;3.10;;;;;;;11.71;93.24;99505.45;1660436;84;21025;-81
2022/09/21 16:40:25;;;;;;;4.28;2.83;;;;;;;11.71;93.14;99512.11;1630952;84;21123;-79
2022/09/21 16:42:53;;;;;;;4.42;3.00;;;;;;;11.78;93.08;99517.00;1633011;84;21647;-83
2022/09/21 16:45:30;;;;;;;5.37;3.58;;;;;;;11.89;92.79;99511.27;1662130;84;21478;-82
2022/09/21 16:47:58;;;;;;;4.03;3.02;;;;;;;11.91;92.71;99522.56;1655123;84;21025;-82
2022/09/21 16:50:24;;;;;;;4.05;3.35;;;;;;;11.84;92.20;99524.28;1649271;84;21049;-83
2022/09/21 16:52:51;;;;;;;3.70;3.30;;;;;;;11.79;91.96;99513.34;1642565;84;21192;-81
2022/09/21 16:55:19;;;;;;;4.55;3.80;;;;;;;11.85;91.96;99529.09;1636555;85;21096;-82
2022/09/21 16:57:47;;;;;;;5.10;3.35;;;;;;;11.81;92.03;99521.97;1637070;86;21637;-78
2022/09/21 17:00:21;;;;;;;5.97;3.40;;;;;;;11.79;92.06;99527.98;1662622;84;21084;-82
2022/09/21 17:02:49;;;;;;;;;;;;;;;11.84;91.87;99533.60;1653206;84;21069;-79
2022/09/21 17:05:18;;;;;;;4.50;4.00;;;;;;;11.92;91.47;99528.73;1654651;84;20256;-80
2022/09/21 17:07:53;;;;;;;6.70;4.47;;;;;;;11.85;91.35;99531.76;1667780;84;21235;-83
2022/09/21 17:10:27;;;;;;;6.65;4.30;;;;;;;11.73;90.95;99535.37;1651024;84;21178;-79
2022/09/21 17:12:57;;;;;;;6.40;4.20;;;;;;;11.58;91.09;99536.14;1641967;83;21106;-81
2022/09/21 17:15:23;;;;;;;5.28;4.78;;;;;;;11.56;90.99;99537.34;1657896;84;21207;-84
2022/09/21 17:17:50;;;;;;;6.70;5.08;;;;;;;11.59;90.74;99537.81;1637232;84;21116;-78
2022/09/21 17:20:21;;;;;;;8.83;6.03;;;;;;;11.50;90.89;99545.53;1660671;84;21164;-79
2022/09/21 17:22:49;;;;;;;6.65;5.50;;;;;;;11.40;90.97;99547.11;1676123;83;21192;-84
2022/09/21 17:25:17;;;;;;;9.40;5.15;;;;;;;11.40;90.95;99552.94;1637417;85;21056;-83
2022/09/21 17:27:44;;;;;;;6.12;5.10;;;;;;;11.42;90.74;99553.58;1596526;88;21156;-83
2022/09/21 17:30:14;;;;;;;6.33;5.72;;;;;;;11.34;90.99;99550.48;1642160;84;21124;-83
2022/09/21 17:32:48;;;;;;;6.83;5.40;;;;;;;11.26;91.15;99547.04;1670222;84;21132;-80
2022/09/21 17:35:34;;;;;;;9.03;5.50;;;;;;;11.19;91.28;99548.27;1662916;83;22195;-78
2022/09/21 17:38:01;;;;;;;6.03;5.05;;;;;;;11.21;91.38;99553.72;1676176;84;21160;-78
2022/09/21 17:40:29;;;;;;;7.33;5.45;;;;;;;11.30;91.25;99551.00;1642187;84;21057;-79
2022/09/21 17:43:05;;;;;;;11.10;6.37;;;;;;;11.26;91.56;99553.69;1647862;84;21083;-78
2022/09/21 17:45:58;;;;;;;7.92;5.20;;;;;;;11.20;91.85;99557.40;1665889;83;21105;-81
2022/09/21 17:48:26;;;;;;;6.37;5.00;;;;;;;11.19;91.86;99553.07;1657501;84;21415;-80
2022/09/21 17:50:53;;;;;;;8.70;5.62;;;;;;;11.19;91.74;99549.08;1638425;84;22481;-80
2022/09/21 17:53:35;;;;;;;7.87;5.65;;;;;;;11.11;92.01;99552.31;1651591;84;21152;-78
2022/09/21 17:56:42;;;;;;;7.05;4.35;;;;;;;11.01;92.06;99554.69;1664233;84;21136;-80
2022/09/21 17:59:30;;;;;;;5.15;4.58;;;;;;;10.98;92.07;99547.05;1666632;84;21543;-81
2022/09/21 18:01:58;;;;;;;5.67;5.00;;;;;;;11.02;91.91;99550.20;1642698;84;21209;-82
2022/09/21 18:04:27;;;;;;;6.50;4.80;;;;;;;10.92;91.97;99550.92;1653220;85;21311;-81
2022/09/21 18:06:54;;;;;;;5.92;4.20;;;;;;;10.82;92.02;99554.62;1652648;84;21068;-81
2022/09/21 18:09:22;;;;;;;5.10;4.42;;;;;;;10.83;91.89;99555.44;1642422;84;21140;-81
2022/09/21 18:12:19;;;;;;;5.85;4.67;;;;;;;10.86;91.59;99549.80;1659959;84;21780;-80
2022/09/21 18:15:02;;;;;;;6.90;4.05;;;;;;;10.81;91.64;99547.64;1663242;84;21289;-82
2022/09/21 18:17:53;;;;;;;;;;;;;;;10.71;91.81;99548.88;1643099;84;21107;-80
2022/09/21 18:20:40;;;;;;;7.70;4.67;;;;;;;10.72;91.86;99549.19;1670197;84;20169;-80
2022/09/21 18:23:15;;;;;;;5.97;4.60;;;;;;;10.73;91.70;99546.88;1641240;84;21062;-81
2022/09/21 18:25:49;;;;;;;4.87;4.33;;;;;;;10.61;92.02;99551.23;1661129;84;21073;-82
2022/09/21 18:28:32;;;;;;;5.42;4.47;;;;;;;10.46;92.46;99549.48;1640548;85;21283;-81
2022/09/21 18:31:16;;;;;;;6.03;4.75;;;;;;;10.51;92.57;99549.30;1634758;84;20998;-80
2022/09/21 18:33:51;;;;;;;5.97;5.37;;;;;;;10.48;92.62;99553.61;1632803;84;21464;-80
2022/09/21 18:36:25;;;;;;;5.55;5.03;;;;;;;10.38;92.91;99553.81;1616890;86;21266;-79
2022/09/21 18:39:25;;;;;;;5.15;4.60;;;;;;;10.28;93.30;99557.66;1654720;85;21615;-80
2022/09/21 18:42:04;;;;;;;6.10;4.65;;;;;;;10.24;93.40;99553.18;1672458;84;21241;-82
2022/09/21 18:44:44;;;;;;;5.95;5.12;;;;;;;10.24;93.53;99554.00;1632693;85;21021;-81
2022/09/21 18:47:36;;;;;;;9.93;5.55;;;;;;;10.14;93.94;99557.83;1651013;84;21194;-80
2022/09/21 18:50:22;;;;;;;6.42;5.28;;;;;;;10.05;94.33;99554.38;1656032;84;21087;-82
2022/09/21 18:53:06;;;;;;;5.47;4.90;;;;;;;10.08;94.40;99555.86;1650698;84;22525;-79
2022/09/21 18:55:36;;;;;;;5.65;5.03;;;;;;;10.13;94.19;99553.03;1658744;84;21526;-81
2022/09/21 18:58:05;;;;;;;7.92;5.45;;;;;;;10.08;94.47;99557.19;1660751;84;21060;-81
2022/09/21 19:00:33;;;;;;;6.90;4.70;;;;;;;9.99;94.63;99554.56;1659894;84;21135;-81
2022/09/21 19:03:04;;;;;;;6.12;5.12;;;;;;;10.00;94.68;99557.53;1663448;84;21022;-84
2022/09/21 19:05:31;;;;;;;6.67;5.60;;;;;;;10.04;94.59;99560.67;1659221;84;21114;-81
2022/09/21 19:08:25;;;;;;;5.67;5.12;;;;;;;9.97;94.94;99559.20;1661743;84;21492;-80
2022/09/21 19:10:58;;;;;;;9.13;5.78;;;;;;;9.92;95.48;99562.85;1677648;84;21029;-81
2022/09/21 19:13:56;;;;;;;7.40;5.60;;;;;;;9.99;95.65;99565.17;1676401;84;21163;-79
2022/09/21 19:16:35;;;;;;;8.05;7.05;;;;;;;10.10;95.57;99565.33;1680853;82;21081;-81
2022/09/21 19:19:17;;;;;;;8.68;7.33;;;;;;;10.06;95.70;99559.19;1670727;84;21157;-81
2022/09/21 19:21:53;;;;;;;6.55;5.87;;;;;;;10.05;95.60;99558.37;1668676;84;21159;-82
2022/09/21 19:24:31;;;;;;;8.50;7.10;;;;;;;10.12;95.32;99554.52;1656959;84;21127;-81
2022/09/21 19:27:18;;;;;;;8.15;7.12;;;;;;;10.12;95.40;99558.50;1622778;84;21035;-76
2022/09/21 19:30:04;;;;;;;11.55;7.62;;;;;;;10.06;95.50;99560.00;1669876;83;21050;-80
2022/09/21 19:32:40;;;;;;;9.23;6.28;;;;;;;10.02;95.80;99563.52;1658590;84;21020;-84
2022/09/21 19:35:28;;;;;;;7.00;6.05;;;;;;;10.11;95.34;99561.66;1666262;84;21103;-82
2022/09/21 19:37:57;;;;;;;9.13;6.90;;;;;;;10.16;94.96;99561.14;1661982;84;21068;-84
2022/09/21 19:40:32;;;;;;;10.58;7.50;;;;;;;10.11;95.12;99558.19;1667574;84;21088;-84
2022/09/21 19:43:27;;;;;;;10.40;6.72;;;;;;;10.06;95.35;99560.52;1673507;84;21119;-83
2022/09/21 19:46:24;;;;;;;9.35;6.83;;;;;;;10.09;95.24;99563.66;1665475;84;21080;-81
2022/09/21 19:48:54;;;;;;;6.85;6.15;;;;;;;10.19;95.04;99556.33;1676844;84;21980;-82
2022/09/21 19:51:38;;;;;;;8.08;7.10;;;;;;;10.16;95.04;99561.14;1649779;84;21134;-83
2022/09/21 19:59:48;;;;;;;7.42;6.20;;;;;;;10.27;94.68;99566.09;1644773;84;21065;-82
2022/09/21 20:02:31;;;;;;;12.58;7.47;;;;;;;10.24;94.52;99562.47;1657293;84;21176;-76
2022/09/21 20:05:19;;;;;;;7.55;6.60;;;;;;;10.20;94.76;99557.17;1658413;84;21053;-78
2022/09/21 20:08:06;;;;;;;9.88;6.58;;;;;;;10.28;94.45;99556.33;1665229;84;21104;-76
2022/09/21 20:10:53;;;;;;;6.20;5.55;;;;;;;10.37;94.18;99557.48;1658902;84;22064;-75
2022/09/21 20:13:40;;;;;;;7.12;6.42;;;;;;;10.34;94.17;99552.51;1661801;84;21589;-78
2022/09/21 20:16:49;;;;;;;6.47;5.55;;;;;;;10.31;94.04;99557.33;1657395;84;21298;-77
2022/09/21 20:19:27;;;;;;;6.95;6.03;;;;;;;10.35;93.74;99547.54;1607627;87;21090;-76
2022/09/21 20:22:03;;;;;;;7.47;5.87;;;;;;;10.40;93.39;99541.70;1624110;86;21062;-77
2022/09/21 20:24:45;;;;;;;8.58;6.60;;;;;;;10.33;93.74;99548.18;1626982;86;21037;-76
2022/09/21 20:27:31;;;;;;;6.70;5.58;;;;;;;10.33;94.02;99546.03;1597536;86;21130;-74
2022/09/21 20:29:58;;;;;;;6.03;5.28;;;;;;;10.43;94.03;99544.03;1655670;84;21636;-75
2022/09/21 20:32:25;;;;;;;12.23;6.87;;;;;;;10.59;93.85;99543.94;1662609;84;21081;-72
2022/09/21 20:34:51;;;;;;;7.20;6.50;;;;;;;10.62;93.51;99549.40;1660027;84;21200;-74
2022/09/21 20:37:18;;;;;;;6.62;5.62;;;;;;;10.59;93.33;99541.28;1654558;84;21068;-72
2022/09/21 20:39:45;;;;;;;6.87;6.17;;;;;;;10.64;93.09;99546.06;1647413;84;21215;-73
2022/09/21 20:42:22;;;;;;;7.00;6.30;;;;;;;10.72;92.51;99550.52;1651508;84;21226;-73
2022/09/21 20:44:50;;;;;;;7.28;6.50;;;;;;;10.68;92.69;99540.77;1637670;84;21050;-75
2022/09/21 20:47:20;;;;;;;12.03;7.03;;;;;;;10.59;92.74;99545.27;1635482;85;21177;-74
2022/09/21 20:49:47;;;;;;;8.80;7.40;;;;;;;10.60;92.65;99550.08;1640315;85;21596;-74
2022/09/21 20:52:15;;;;;;;7.55;6.62;;;;;;;10.63;92.32;99544.43;1623207;87;21122;-73
2022/09/21 20:54:45;;;;;;;9.50;7.15;;;;;;;10.58;92.55;99544.11;1642470;84;21159;-73
2022/09/21 20:57:11;;;;;;;9.85;7.03;;;;;;;10.51;92.79;99544.49;1632937;85;21050;-75
2022/09/21 20:59:39;;;;;;;10.45;7.53;;;;;;;10.51;92.57;99549.81;1640059;85;21109;-73
2022/09/21 21:02:08;;;;;;;12.18;8.28;;;;;;;10.57;92.46;99546.45;1657123;84;21083;-74
2022/09/21 21:04:35;;;;;;;12.63;8.63;;;;;;;10.55;92.75;99542.63;1665581;84;21143;-74
2022/09/21 21:07:02;;;;;;;13.55;7.90;;;;;;;10.53;92.72;99545.14;1652716;84;21147;-74
2022/09/21 21:09:28;;;;;;;14.40;8.93;;;;;;;10.59;92.72;99544.45;1645494;84;21746;-74
2022/09/21 21:11:55;;;;;;;12.40;9.03;;;;;;;10.68;92.26;99554.52;1649338;84;21128;-74
2022/09/21 21:14:24;;;;;;;14.73;9.15;;;;;;;10.59;91.95;99549.77;1648658;84;21135;-74
2022/09/21 21:16:52;;;;;;;12.90;9.03;;;;;;;10.43;92.02;99550.66;1660607;84;21575;-74
2022/09/21 21:19:18;;;;;;;11.35;8.83;;;;;;;10.39;92.10;99546.19;1650665;84;21941;-73
2022/09/21 21:21:45;;;;;;;12.00;9.20;;;;;;;10.43;91.92;99548.01;1645037;84;21290;-73
2022/09/21 21:26:56;;;;;;;11.25;8.13;;;;;;;10.38;92.87;99539.21;1628935;84;21545;-73
2022/09/21 21:29:22;;;;;;;10.48;7.12;;;;;;;10.36;92.82;99536.41;1646385;85;21017;-73
2022/09/21 21:31:50;;;;;;;11.30;7.08;;;;;;;10.41;92.70;99539.36;1654059;84;21141;-73
2022/09/21 21:34:16;;;;;;;10.00;6.78;;;;;;;10.49;92.36;99539.34;1650487;84;21119;-74
2022/09/21 21:36:43;;;;;;;9.95;7.42;;;;;;;10.43;92.23;99539.53;1661442;84;22110;-73
2022/09/21 21:39:09;;;;;;;10.82;7.72;;;;;;;10.33;92.37;99538.89;1644955;84;21620;-73
2022/09/21 21:41:36;;;;;;;7.70;6.78;;;;;;;10.24;92.78;99538.07;1642184;85;21102;-73
2022/09/21 21:44:02;;;;;;;8.10;6.40;;;;;;;10.28;92.90;99535.91;1642346;85;21273;-71
2022/09/21 21:46:29;;;;;;;7.90;7.05;;;;;;;10.40;92.84;99535.06;1649633;84;21152;-74
2022/09/21 21:48:55;;;;;;;12.00;7.80;;;;;;;10.39;92.80;99534.24;1655202;84;21138;-74
2022/09/21 21:51:22;;;;;;;11.22;8.10;;;;;;;10.34;92.72;99541.89;1660686;84;21135;-73
2022/09/21 21:53:48;;;;;;;10.38;7.10;;;;;;;10.25;92.77;99534.91;1639007;84;21135;-74
2022/09/21 21:56:15;;;;;;;11.83;7.97;;;;;;;10.26;92.72;99533.07;1654513;84;21537;-75
2022/09/21 21:58:42;;;;;;;11.53;8.48;;;;;;;10.34;92.67;99534.42;1629850;85;21061;-74
2022/09/21 22:01:20;;;;;;;12.33;9.05;;;;;;;10.30;92.79;99535.74;1599074;88;21110;-73
2022/09/21 22:03:51;;;;;;;11.30;7.60;;;;;;;10.27;92.98;99543.53;1615869;86;21117;-73
2022/09/21 22:06:18;;;;;;;9.28;7.12;;;;;;;10.27;92.59;99538.22;1635105;84;21124;-71
2022/09/21 22:11:43;;;;;;;10.32;8.50;;;;;;;10.33;92.61;99540.72;1888976;76;28043;-72
2022/09/21 22:14:10;;;;;;;8.45;7.65;;;;;;;10.22;92.62;99544.05;1859529;77;21065;-73
2022/09/21 22:16:37;;;;;;;8.35;6.40;;;;;;;10.19;92.83;99544.37;1845012;75;21086;-74
2022/09/21 22:19:06;;;;;;;7.55;6.55;;;;;;;10.24;92.72;99539.91;1835135;77;20902;-73
2022/09/21 22:21:40;;;;;;;7.22;6.53;;;;;;;10.33;92.47;99538.89;1840463;75;20992;-75
2022/09/21 22:24:07;;;;;;;8.55;6.87;;;;;;;10.31;92.53;99539.56;1855307;75;21104;-74
2022/09/21 22:26:38;;;;;;;7.35;6.20;;;;;;;10.28;92.60;99537.23;1857179;77;21009;-73
2022/09/21 22:29:05;;;;;;;8.65;6.50;;;;;;;10.32;92.47;99537.76;1858466;77;21201;-73
2022/09/21 22:31:37;;;;;;;8.50;6.85;;;;;;;10.39;92.01;99528.08;1848286;75;21040;-74
2022/09/21 22:34:04;;;;;;;7.95;7.15;;;;;;;10.36;92.01;99528.45;1855726;77;21002;-74
2022/09/21 22:36:32;;;;;;;6.75;5.97;;;;;;;10.31;92.15;99531.59;1826790;77;21036;-72
2022/09/21 22:38:59;;;;;;;6.80;6.10;;;;;;;10.33;91.79;99533.58;1827232;77;21026;-74
2022/09/21 22:41:29;;;;;;;7.12;6.42;;;;;;;10.38;91.31;99529.91;1854269;75;21366;-74